Ebony, TX

8:18 AM CST on December 03, 2016 (GMT -0600)
Rough Creek Ranch Mills County Texas | | Change Station

Elev 1450 ft 31.50 °N, 98.86 °W | Updated 27 seconds ago

Light Rain
Light Rain
46.5 °F
Feels Like 43 °F
N
7.7
Wind Variable Wind from ENE
Gusts 12.0 mph

Today
High -- | Low -- °F
--% Chance of Precip.
Yesterday
High -- | Low -- °F
Precip. -- in
Pressure 30.05 in
Visibility 5.0 miles
Clouds Overcast 1100 ft
Windchill 43 °F
Dew Point 47 °F
Humidity 99%
Rainfall 0.40 in
Snow Depth Not available.
7:19 AM 5:31 PM
Waxing Crescent, 15% visible
METAR KBWD 031355Z AUTO 07011KT 5SM -RA OVC011 08/07 A3005 RMK AO2
Pressure 30.05 in
Visibility 5.0 miles
Clouds Overcast 1100 ft
Windchill 43 °F
Dew Point 47 °F
Humidity 99%
Rainfall 0.40 in
Snow Depth Not available.
7:19 AM 5:31 PM
Waxing Crescent, 15% visible
METAR KBWD 031355Z AUTO 07011KT 5SM -RA OVC011 08/07 A3005 RMK AO2

10-Day Weather Forecast

Almanac

Astronomy

Dec. 03, 2016 Rise Set
Actual Time
Civil Twilight
Nautical Twilight
Astronomical Twilight
Moon
Length of Visible Light
Length of Day
Tomorrow will be .
, % of the Moon is Illuminated

Today's Extremes

State Highs State Lows

Community

WunderPhotos

Upload Photos

1,955,446 photos uploaded!

WunderBlog® & News

Nearby

Air Quality

  Air Quality AQ Index Pollutant
Not available.

Snow Depth

Station Depth Elevation

Earthquake Activity

City Distance Mag. Time & Date
Minimum magnitude displayed is 2.5.

Coastal Water Temperatures

Place Temperature

Stations

Nearby Weather Stations

Station Location Temp. Windchill Dew Point Humidity Wind Precip. Elev Updated Type
                   

Watches & Warnings

There are currently no watches in effect.